Time;durP1;ratioP1;P1;durP2;ratioP2;P2;SDS_P1;SDS_P2;PMS_P1;PMS_P2;Temp;Humidity;BMP_temperature;BMP_pressure;BME280_temperature;BME280_humidity;BME280_pressure;Samples;Min_cycle;Max_cycle;Signal;HPM_P1;HPM_P2
2022/05/26 00:00:00;;;;;;;2.83;2.55;;;;;;;;;;2075803;28;20561;-58
2022/05/26 00:01:04;;;;;;;6.07;2.53;;;;;;;;;;2076058;28;20169;-58
2022/05/26 00:02:05;;;;;;;2.55;2.33;;;;;;;;;;2074842;28;20204;-58
2022/05/26 00:03:05;;;;;;;2.40;2.20;;;;;;;;;;2073800;28;20171;-55
2022/05/26 00:04:06;;;;;;;2.90;2.70;;;;;;;;;;2065493;28;20224;-59
2022/05/26 00:05:06;;;;;;;2.75;2.10;;;;;;;;;;2067125;28;20198;-56
2022/05/26 00:06:08;;;;;;;3.17;2.28;;;;;;;;;;2074250;28;20230;-61
2022/05/26 00:07:08;;;;;;;4.57;2.72;;;;;;;;;;2073861;28;20186;-60
2022/05/26 00:08:08;;;;;;;4.03;2.15;;;;;;;;;;2073211;28;20187;-59
2022/05/26 00:09:08;;;;;;;3.63;3.05;;;;;;;;;;2072961;28;20201;-61
2022/05/26 00:10:09;;;;;;;3.03;2.72;;;;;;;;;;2073594;28;20287;-57
2022/05/26 00:11:11;;;;;;;3.45;2.22;;;;;;;;;;2064917;28;20257;-57
2022/05/26 00:12:12;;;;;;;2.65;2.30;;;;;;;;;;2065648;28;20184;-57
2022/05/26 00:13:12;;;;;;;3.03;2.25;;;;;;;;;;2065271;28;20170;-56
2022/05/26 00:14:13;;;;;;;2.78;2.33;;;;;;;;;;2072065;28;20189;-59
2022/05/26 00:15:14;;;;;;;2.60;2.38;;;;;;;;;;2073595;28;20192;-57
2022/05/26 00:16:14;;;;;;;5.88;2.20;;;;;;;;;;2073723;28;20204;-61
2022/05/26 00:17:14;;;;;;;3.22;2.28;;;;;;;;;;2072752;28;20678;-62
2022/05/26 00:18:15;;;;;;;3.55;2.67;;;;;;;;;;2074912;28;20169;-60
2022/05/26 00:19:16;;;;;;;5.00;2.47;;;;;;;;;;2076897;28;20219;-60
2022/05/26 00:20:17;;;;;;;4.50;2.80;;;;;;;;;;2076467;28;20176;-59
2022/05/26 00:21:18;;;;;;;5.53;3.17;;;;;;;;;;2075499;28;20181;-61
2022/05/26 00:22:18;;;;;;;2.80;2.60;;;;;;;;;;2076162;28;20192;-59
2022/05/26 00:23:18;;;;;;;3.70;2.90;;;;;;;;;;2074978;28;20179;-61
2022/05/26 00:24:20;;;;;;;2.92;2.72;;;;;;;;;;2074174;28;20264;-61
2022/05/26 00:25:20;;;;;;;3.70;2.85;;;;;;;;;;2073900;28;20227;-56
2022/05/26 00:26:21;;;;;;;4.93;2.97;;;;;;;;;;2074279;28;20192;-57
2022/05/26 00:27:21;;;;;;;3.72;2.78;;;;;;;;;;2074664;28;20235;-57
2022/05/26 00:28:21;;;;;;;3.47;3.20;;;;;;;;;;2072877;28;20173;-58
2022/05/26 00:29:21;;;;;;;4.07;2.80;;;;;;;;;;2073271;28;20177;-58
2022/05/26 00:30:22;;;;;;;2.75;2.50;;;;;;;;;;2073297;28;20239;-58
2022/05/26 00:31:22;;;;;;;4.20;3.00;;;;;;;;;;2073195;28;20185;-60
2022/05/26 00:32:22;;;;;;;3.80;2.95;;;;;;;;;;2073348;28;20252;-61
2022/05/26 00:33:22;;;;;;;3.47;3.20;;;;;;;;;;2073297;28;20231;-57
2022/05/26 00:34:23;;;;;;;3.50;3.20;;;;;;;;;;2072374;28;20276;-60
2022/05/26 00:35:23;;;;;;;4.90;3.15;;;;;;;;;;2073290;28;20184;-62
2022/05/26 00:36:39;;;;;;;5.53;2.83;;;;;;;;;;2073168;28;20251;-60
2022/05/26 00:37:39;;;;;;;3.10;2.88;;;;;;;;;;2073062;28;20195;-59
2022/05/26 00:38:39;;;;;;;3.58;2.92;;;;;;;;;;2073300;28;20263;-60
2022/05/26 00:39:40;;;;;;;4.03;3.00;;;;;;;;;;2073417;28;20247;-56
2022/05/26 00:40:41;;;;;;;3.63;2.80;;;;;;;;;;2073092;28;20192;-58
2022/05/26 00:41:43;;;;;;;4.60;3.00;;;;;;;;;;2073212;28;20177;-60
2022/05/26 00:42:43;;;;;;;3.60;3.00;;;;;;;;;;2073139;28;20165;-59
2022/05/26 00:43:44;;;;;;;4.63;3.05;;;;;;;;;;2073299;28;20169;-59
2022/05/26 00:44:44;;;;;;;4.22;3.17;;;;;;;;;;2072104;28;20178;-61
2022/05/26 00:45:50;;;;;;;3.40;3.10;;;;;;;;;;2073085;28;20192;-62
2022/05/26 00:46:56;;;;;;;4.75;3.20;;;;;;;;;;2072436;28;20181;-61
2022/05/26 00:47:57;;;;;;;4.55;3.08;;;;;;;;;;2074933;28;20208;-58
2022/05/26 00:48:59;;;;;;;3.20;2.92;;;;;;;;;;2077768;28;20185;-59
2022/05/26 00:50:01;;;;;;;3.75;3.22;;;;;;;;;;2076671;28;20170;-63
2022/05/26 00:51:03;;;;;;;3.50;3.20;;;;;;;;;;2075023;28;20185;-62
2022/05/26 00:52:03;;;;;;;4.75;3.10;;;;;;;;;;2072527;28;20169;-61
2022/05/26 00:53:11;;;;;;;3.42;3.13;;;;;;;;;;2072343;28;20192;-61
2022/05/26 00:54:14;;;;;;;3.17;2.88;;;;;;;;;;2072396;28;20524;-61
2022/05/26 00:55:16;;;;;;;5.13;3.30;;;;;;;;;;2072902;28;20569;-57
2022/05/26 00:56:22;;;;;;;3.78;2.80;;;;;;;;;;2073337;28;20177;-60
2022/05/26 00:57:24;;;;;;;3.88;2.97;;;;;;;;;;2072957;28;20173;-60
2022/05/26 00:58:28;;;;;;;3.15;2.70;;;;;;;;;;2073288;28;20247;-59
2022/05/26 00:59:35;;;;;;;6.00;2.97;;;;;;;;;;2072999;28;20181;-59
2022/05/26 01:00:37;;;;;;;2.85;2.65;;;;;;;;;;2072733;28;20244;-58
2022/05/26 01:01:37;;;;;;;3.22;2.90;;;;;;;;;;2073131;28;20177;-57
2022/05/26 01:02:41;;;;;;;3.50;2.92;;;;;;;;;;2072554;28;20161;-61
2022/05/26 01:03:48;;;;;;;3.55;3.22;;;;;;;;;;2072552;28;20185;-61
2022/05/26 01:04:50;;;;;;;4.15;3.13;;;;;;;;;;2072111;28;20166;-57
2022/05/26 01:05:57;;;;;;;4.30;3.10;;;;;;;;;;2072933;28;20167;-59
2022/05/26 01:07:03;;;;;;;3.65;3.20;;;;;;;;;;2072472;28;20192;-59
2022/05/26 01:08:07;;;;;;;3.38;2.90;;;;;;;;;;2072932;28;20165;-63
2022/05/26 01:09:07;;;;;;;3.00;2.78;;;;;;;;;;2077247;28;20239;-62
2022/05/26 01:10:09;;;;;;;6.05;3.38;;;;;;;;;;2077386;28;20168;-60
2022/05/26 01:11:09;;;;;;;4.25;2.85;;;;;;;;;;2076101;28;20637;-58
2022/05/26 01:12:09;;;;;;;2.40;2.25;;;;;;;;;;2073362;28;20165;-60
2022/05/26 01:13:10;;;;;;;5.25;3.00;;;;;;;;;;2073102;28;20184;-61
2022/05/26 01:14:23;;;;;;;3.22;2.75;;;;;;;;;;2071913;28;20302;-60
2022/05/26 01:15:23;;;;;;;3.80;3.10;;;;;;;;;;2072600;28;20180;-61
2022/05/26 01:16:31;;;;;;;3.95;3.08;;;;;;;;;;2073209;28;20205;-59
2022/05/26 01:17:50;;;;;;;3.20;2.72;;;;;;;;;;2072727;28;20168;-60
2022/05/26 01:18:53;;;;;;;4.25;3.05;;;;;;;;;;2072256;28;20188;-60
2022/05/26 01:20:12;;;;;;;5.38;3.40;;;;;;;;;;2072356;28;20211;-58
2022/05/26 01:21:17;;;;;;;3.55;3.28;;;;;;;;;;2064987;28;20186;-58
2022/05/26 01:22:36;;;;;;;3.53;3.25;;;;;;;;;;2065614;28;20170;-60
2022/05/26 01:24:00;;;;;;;3.78;3.38;;;;;;;;;;2066696;28;20172;-61
2022/05/26 01:25:19;;;;;;;4.15;3.78;;;;;;;;;;2066503;28;20158;-59
2022/05/26 01:26:46;;;;;;;5.75;3.45;;;;;;;;;;2074252;28;20188;-61
2022/05/26 01:27:57;;;;;;;5.05;3.75;;;;;;;;;;2058669;28;20809;-61
2022/05/26 01:29:03;;;;;;;3.50;3.30;;;;;;;;;;2074273;28;20165;-64
2022/05/26 01:30:09;;;;;;;4.10;3.33;;;;;;;;;;2074432;28;20288;-63
2022/05/26 01:31:28;;;;;;;5.60;3.58;;;;;;;;;;2074278;28;20252;-62
2022/05/26 01:32:47;;;;;;;6.38;3.45;;;;;;;;;;2074451;28;20180;-57
2022/05/26 01:33:50;;;;;;;3.67;3.05;;;;;;;;;;2074836;28;20533;-60
2022/05/26 01:34:59;;;;;;;4.32;3.78;;;;;;;;;;2073724;28;20173;-57
2022/05/26 01:36:07;;;;;;;5.43;3.45;;;;;;;;;;2074779;28;20203;-62
2022/05/26 01:37:16;;;;;;;3.70;3.40;;;;;;;;;;2073862;28;20189;-59
2022/05/26 01:38:26;;;;;;;4.57;3.28;;;;;;;;;;2074389;28;20161;-56
2022/05/26 01:39:35;;;;;;;4.40;3.80;;;;;;;;;;2074829;28;20719;-62
2022/05/26 01:40:40;;;;;;;4.45;4.05;;;;;;;;;;2075696;28;20185;-61
2022/05/26 01:41:48;;;;;;;4.60;4.20;;;;;;;;;;2077413;28;20168;-62
2022/05/26 01:43:08;;;;;;;4.32;3.90;;;;;;;;;;2074373;28;20224;-61
2022/05/26 01:44:27;;;;;;;4.47;4.05;;;;;;;;;;2074873;28;20185;-60
2022/05/26 01:45:28;;;;;;;4.18;3.78;;;;;;;;;;2076205;28;20681;-58
2022/05/26 01:46:36;;;;;;;5.03;4.63;;;;;;;;;;2075799;28;20173;-60
2022/05/26 01:47:43;;;;;;;5.50;4.38;;;;;;;;;;2075139;28;20248;-60
2022/05/26 01:48:49;;;;;;;4.82;4.43;;;;;;;;;;2075649;28;20180;-62
2022/05/26 01:49:54;;;;;;;5.43;4.93;;;;;;;;;;2078793;28;20305;-62
2022/05/26 01:51:00;;;;;;;9.60;5.45;;;;;;;;;;2084253;28;20180;-60
2022/05/26 01:52:00;;;;;;;5.97;4.45;;;;;;;;;;2083806;28;20172;-61
2022/05/26 01:53:16;;;;;;;5.78;5.15;;;;;;;;;;2083536;28;20207;-62
2022/05/26 01:54:20;;;;;;;5.97;5.20;;;;;;;;;;2081914;28;20176;-61
2022/05/26 01:55:27;;;;;;;5.90;4.80;;;;;;;;;;2075632;28;20581;-60
2022/05/26 01:56:38;;;;;;;7.90;4.65;;;;;;;;;;2075293;28;20256;-60
2022/05/26 01:57:43;;;;;;;8.82;5.35;;;;;;;;;;2075516;28;20168;-61
2022/05/26 01:58:47;;;;;;;6.43;5.13;;;;;;;;;;2075417;28;20227;-63
2022/05/26 01:59:52;;;;;;;5.78;5.25;;;;;;;;;;2075443;28;20549;-63
2022/05/26 02:00:53;;;;;;;6.13;5.50;;;;;;;;;;2076262;28;20535;-61
2022/05/26 02:02:04;;;;;;;7.85;5.93;;;;;;;;;;2075474;28;20207;-60
2022/05/26 02:03:11;;;;;;;6.18;5.57;;;;;;;;;;2075864;28;20197;-60
2022/05/26 02:04:14;;;;;;;7.22;6.15;;;;;;;;;;2075756;28;20654;-62
2022/05/26 02:05:16;;;;;;;8.48;6.70;;;;;;;;;;2076355;28;20284;-62
2022/05/26 02:06:23;;;;;;;6.97;6.22;;;;;;;;;;2077200;28;20196;-60
2022/05/26 02:07:42;;;;;;;6.22;5.63;;;;;;;;;;2077636;28;20177;-60
2022/05/26 02:08:44;;;;;;;8.50;6.18;;;;;;;;;;2077718;28;20172;-63
2022/05/26 02:09:45;;;;;;;7.20;6.53;;;;;;;;;;2077445;28;20181;-60
2022/05/26 02:10:48;;;;;;;7.18;6.50;;;;;;;;;;2076815;28;20256;-61
2022/05/26 02:11:55;;;;;;;9.27;6.35;;;;;;;;;;2078726;28;20196;-62
2022/05/26 02:13:14;;;;;;;6.97;6.30;;;;;;;;;;2078612;28;20188;-62
2022/05/26 02:14:17;;;;;;;6.95;6.45;;;;;;;;;;2075621;28;20169;-61
2022/05/26 02:15:22;;;;;;;6.72;6.13;;;;;;;;;;2075781;28;20201;-59
2022/05/26 02:16:35;;;;;;;6.88;6.28;;;;;;;;;;2074203;28;20157;-63
2022/05/26 02:17:38;;;;;;;10.35;6.63;;;;;;;;;;2076388;28;20173;-61
2022/05/26 02:18:45;;;;;;;7.05;5.10;;;;;;;;;;2075066;28;20169;-58
2022/05/26 02:19:53;;;;;;;6.80;6.28;;;;;;;;;;2074131;28;20243;-60
2022/05/26 02:20:58;;;;;;;6.22;5.65;;;;;;;;;;2074218;28;20184;-61
2022/05/26 02:22:07;;;;;;;6.53;5.90;;;;;;;;;;2074387;28;20161;-59
2022/05/26 02:23:17;;;;;;;8.40;6.03;;;;;;;;;;2073548;28;20634;-57
2022/05/26 02:24:23;;;;;;;7.45;6.45;;;;;;;;;;2072528;28;20269;-58
2022/05/26 02:25:25;;;;;;;7.95;6.38;;;;;;;;;;2065426;28;20193;-58
2022/05/26 02:26:25;;;;;;;6.85;6.25;;;;;;;;;;2065990;28;20165;-59
2022/05/26 02:27:26;;;;;;;7.47;6.55;;;;;;;;;;2066694;28;20164;-59
2022/05/26 02:28:27;;;;;;;10.32;6.78;;;;;;;;;;2066120;28;20670;-58
2022/05/26 02:30:47;;;;;;;7.20;6.53;;;;;;;;;;2074119;28;20168;-62
2022/05/26 02:31:48;;;;;;;7.72;6.03;;;;;;;;;;2073516;28;20550;-61
2022/05/26 02:32:50;;;;;;;7.72;7.05;;;;;;;;;;2072992;28;20234;-61
2022/05/26 02:33:55;;;;;;;7.50;6.75;;;;;;;;;;2073434;28;20265;-56
2022/05/26 02:34:57;;;;;;;5.93;5.43;;;;;;;;;;2072833;28;20176;-59
2022/05/26 02:35:57;;;;;;;8.02;6.93;;;;;;;;;;2073343;28;20741;-62
2022/05/26 02:36:58;;;;;;;7.50;6.80;;;;;;;;;;2073155;28;20250;-59
2022/05/26 02:38:02;;;;;;;7.45;6.55;;;;;;;;;;2073347;28;20176;-59
2022/05/26 02:39:04;;;;;;;10.93;7.18;;;;;;;;;;2073247;28;20177;-58
2022/05/26 02:40:08;;;;;;;7.15;6.43;;;;;;;;;;2073841;28;20646;-58
2022/05/26 02:41:08;;;;;;;7.68;6.88;;;;;;;;;;2073257;28;20177;-58
2022/05/26 02:42:09;;;;;;;7.35;6.75;;;;;;;;;;2073358;28;20185;-56
2022/05/26 02:43:13;;;;;;;7.53;6.82;;;;;;;;;;2073875;28;20556;-62
2022/05/26 02:44:13;;;;;;;8.60;6.28;;;;;;;;;;2073020;28;20244;-57
2022/05/26 02:45:15;;;;;;;7.40;6.72;;;;;;;;;;2072805;28;20291;-58
2022/05/26 02:46:34;;;;;;;7.60;6.03;;;;;;;;;;2073456;28;20173;-58
2022/05/26 02:47:50;;;;;;;9.73;6.75;;;;;;;;;;2073819;28;20168;-55
2022/05/26 02:49:10;;;;;;;7.43;6.75;;;;;;;;;;2077426;28;20214;-59
2022/05/26 02:50:33;;;;;;;7.25;6.55;;;;;;;;;;2082371;28;20164;-58
2022/05/26 02:51:42;;;;;;;8.50;6.43;;;;;;;;;;2065860;28;20628;-60
2022/05/26 02:52:42;;;;;;;6.85;6.25;;;;;;;;;;2065836;28;20546;-59
2022/05/26 02:53:59;;;;;;;7.10;6.40;;;;;;;;;;2065771;28;20189;-62
2022/05/26 02:55:18;;;;;;;7.47;6.70;;;;;;;;;;2068101;28;20582;-60
2022/05/26 02:56:27;;;;;;;8.13;6.28;;;;;;;;;;2082822;22;20952;-61
2022/05/26 02:57:35;;;;;;;7.40;6.70;;;;;;;;;;2071073;28;20646;-60
2022/05/26 02:58:38;;;;;;;8.43;6.93;;;;;;;;;;2069536;28;20173;-62
2022/05/26 02:59:38;;;;;;;7.07;6.32;;;;;;;;;;2073629;28;20201;-62
2022/05/26 03:00:48;;;;;;;6.85;6.25;;;;;;;;;;2072645;28;20171;-63
2022/05/26 03:01:52;;;;;;;7.57;6.88;;;;;;;;;;2073645;28;20247;-60
2022/05/26 03:02:55;;;;;;;7.00;6.40;;;;;;;;;;2073410;28;20175;-60
2022/05/26 03:03:58;;;;;;;7.05;6.25;;;;;;;;;;2073323;28;20196;-63
2022/05/26 03:05:17;;;;;;;8.82;6.70;;;;;;;;;;2071330;28;20239;-62
2022/05/26 03:06:30;;;;;;;7.68;7.07;;;;;;;;;;2073292;28;20220;-62
2022/05/26 03:07:32;;;;;;;8.05;6.82;;;;;;;;;;2073516;28;20180;-62
2022/05/26 03:08:36;;;;;;;8.20;7.40;;;;;;;;;;2072867;28;20176;-60
2022/05/26 03:09:37;;;;;;;8.07;6.95;;;;;;;;;;2073119;28;20622;-60
2022/05/26 03:10:37;;;;;;;8.13;7.43;;;;;;;;;;2068453;28;20192;-61
2022/05/26 03:11:42;;;;;;;9.45;7.43;;;;;;;;;;2065428;28;20253;-58
2022/05/26 03:12:43;;;;;;;8.60;7.80;;;;;;;;;;2065388;28;20182;-60
2022/05/26 03:13:43;;;;;;;9.32;7.68;;;;;;;;;;2063272;28;20162;-62
2022/05/26 03:14:43;;;;;;;8.35;7.47;;;;;;;;;;2064365;28;20248;-62
2022/05/26 03:15:44;;;;;;;9.07;7.95;;;;;;;;;;2065419;28;20190;-62
2022/05/26 03:16:44;;;;;;;7.50;6.90;;;;;;;;;;2065011;28;20216;-61
2022/05/26 03:17:44;;;;;;;7.00;6.45;;;;;;;;;;2065633;28;20189;-62
2022/05/26 03:18:45;;;;;;;9.15;7.90;;;;;;;;;;2065640;28;20264;-63
2022/05/26 03:19:45;;;;;;;8.57;7.60;;;;;;;;;;2064705;28;20268;-62
2022/05/26 03:20:45;;;;;;;8.20;7.45;;;;;;;;;;2051740;28;20194;-63
2022/05/26 03:21:46;;;;;;;8.75;7.88;;;;;;;;;;2056556;28;20166;-60
2022/05/26 03:22:46;;;;;;;9.80;7.75;;;;;;;;;;2057541;28;20186;-59
2022/05/26 03:23:46;;;;;;;8.60;7.88;;;;;;;;;;2057480;28;20170;-60
2022/05/26 03:24:47;;;;;;;10.13;9.23;;;;;;;;;;2056665;28;20599;-62
2022/05/26 03:25:48;;;;;;;8.23;7.47;;;;;;;;;;2063147;28;20184;-62
2022/05/26 03:26:48;;;;;;;8.23;7.53;;;;;;;;;;2065512;28;20654;-63
2022/05/26 03:27:48;;;;;;;9.25;8.27;;;;;;;;;;2065606;28;20610;-61
2022/05/26 03:28:49;;;;;;;11.85;9.90;;;;;;;;;;2065411;28;20201;-63
2022/05/26 03:29:49;;;;;;;11.45;10.07;;;;;;;;;;2065469;28;20185;-61
2022/05/26 03:30:49;;;;;;;10.02;8.88;;;;;;;;;;2064678;28;20182;-64
2022/05/26 03:31:49;;;;;;;11.25;9.05;;;;;;;;;;2065198;28;20173;-59
2022/05/26 03:32:50;;;;;;;9.93;8.93;;;;;;;;;;2065444;28;20668;-54
2022/05/26 03:41:44;;;;;;;16.98;13.80;;;;;;;;;;2065401;28;20528;-61
2022/05/26 03:42:44;;;;;;;19.08;15.35;;;;;;;;;;2065386;28;20170;-61
2022/05/26 03:43:47;;;;;;;22.63;15.98;;;;;;;;;;2065556;28;20646;-59
2022/05/26 03:44:47;;;;;;;23.05;17.83;;;;;;;;;;2064959;28;20700;-62
2022/05/26 03:45:47;;;;;;;21.40;16.60;;;;;;;;;;2065277;28;20170;-62
2022/05/26 03:46:48;;;;;;;20.33;16.60;;;;;;;;;;2064953;28;20994;-61
2022/05/26 03:47:49;;;;;;;18.85;16.13;;;;;;;;;;2065639;28;20231;-59
2022/05/26 03:48:49;;;;;;;20.48;15.77;;;;;;;;;;2065628;28;20177;-60
2022/05/26 03:49:49;;;;;;;20.90;17.40;;;;;;;;;;2068866;28;20676;-61
2022/05/26 03:50:49;;;;;;;21.40;16.55;;;;;;;;;;2067866;28;20653;-61
2022/05/26 03:51:50;;;;;;;19.30;16.95;;;;;;;;;;2065438;28;20200;-62
2022/05/26 03:52:51;;;;;;;21.50;16.27;;;;;;;;;;2065045;28;20181;-62
2022/05/26 03:53:51;;;;;;;25.95;18.02;;;;;;;;;;2064395;28;20176;-59
2022/05/26 03:54:51;;;;;;;22.33;17.75;;;;;;;;;;2064266;28;20693;-59
2022/05/26 03:55:52;;;;;;;21.55;18.63;;;;;;;;;;2065214;28;20646;-56
2022/05/26 03:56:52;;;;;;;24.65;17.75;;;;;;;;;;2065043;28;20209;-59
2022/05/26 03:57:52;;;;;;;23.05;18.00;;;;;;;;;;2065020;28;20269;-62
2022/05/26 03:58:53;;;;;;;23.48;18.52;;;;;;;;;;2064585;28;20192;-59
2022/05/26 03:59:53;;;;;;;20.98;17.35;;;;;;;;;;2056744;28;20237;-58
2022/05/26 04:00:53;;;;;;;22.20;18.25;;;;;;;;;;2064721;28;20189;-61
2022/05/26 04:01:54;;;;;;;22.40;17.75;;;;;;;;;;2065323;28;20738;-55
2022/05/26 04:02:54;;;;;;;22.33;17.98;;;;;;;;;;2064999;28;20220;-62
2022/05/26 04:03:57;;;;;;;26.45;19.35;;;;;;;;;;2064236;28;20200;-61
2022/05/26 04:04:58;;;;;;;24.40;18.63;;;;;;;;;;2064751;28;20196;-62
2022/05/26 04:05:58;;;;;;;27.83;19.13;;;;;;;;;;2073196;28;20211;-60
2022/05/26 04:06:58;;;;;;;26.83;17.95;;;;;;;;;;2073156;28;20176;-62
2022/05/26 04:07:59;;;;;;;25.92;18.95;;;;;;;;;;2065326;28;20170;-59
2022/05/26 04:08:59;;;;;;;26.45;18.88;;;;;;;;;;2064591;28;20236;-63
2022/05/26 04:09:59;;;;;;;23.23;17.48;;;;;;;;;;2064743;28;20201;-62
2022/05/26 04:11:00;;;;;;;22.13;17.85;;;;;;;;;;2065010;28;20201;-62
2022/05/26 04:12:00;;;;;;;25.05;17.63;;;;;;;;;;2065226;28;20181;-60
2022/05/26 04:13:00;;;;;;;24.15;18.80;;;;;;;;;;2065296;28;20247;-57
2022/05/26 04:14:00;;;;;;;25.52;19.83;;;;;;;;;;2064235;28;20169;-55
2022/05/26 04:15:02;;;;;;;23.95;18.88;;;;;;;;;;2065009;28;20671;-63
2022/05/26 04:16:03;;;;;;;24.67;19.27;;;;;;;;;;2064353;28;20174;-61
2022/05/26 04:17:03;;;;;;;22.67;18.38;;;;;;;;;;2064594;28;20205;-60
2022/05/26 04:18:04;;;;;;;31.25;19.52;;;;;;;;;;2065356;28;20212;-62
2022/05/26 04:19:04;;;;;;;22.88;18.73;;;;;;;;;;2065521;28;20165;-63
2022/05/26 04:20:05;;;;;;;28.15;19.30;;;;;;;;;;2065090;28;20170;-62
2022/05/26 04:21:07;;;;;;;24.90;18.17;;;;;;;;;;2064951;28;20596;-60
2022/05/26 04:22:17;;;;;;;27.67;19.92;;;;;;;;;;2064837;28;20221;-61
2022/05/26 04:23:17;;;;;;;21.23;17.67;;;;;;;;;;2064949;28;20241;-61
2022/05/26 04:24:18;;;;;;;25.23;18.58;;;;;;;;;;2055798;28;20189;-61
2022/05/26 04:25:20;;;;;;;25.92;19.27;;;;;;;;;;2064493;28;20204;-63
2022/05/26 04:26:20;;;;;;;23.40;18.17;;;;;;;;;;2064178;28;20276;-62
2022/05/26 04:27:21;;;;;;;24.35;20.13;;;;;;;;;;2064594;28;20244;-64
2022/05/26 04:28:21;;;;;;;24.80;19.50;;;;;;;;;;2064473;28;20176;-61
2022/05/26 04:29:23;;;;;;;25.70;19.02;;;;;;;;;;2064757;28;20184;-60
2022/05/26 04:30:24;;;;;;;26.38;19.30;;;;;;;;;;2064726;28;20161;-61
2022/05/26 04:31:24;;;;;;;25.83;19.60;;;;;;;;;;2064918;28;20197;-63
2022/05/26 04:32:25;;;;;;;24.35;19.55;;;;;;;;;;2065230;28;20170;-64
2022/05/26 04:33:26;;;;;;;23.83;18.85;;;;;;;;;;2065337;28;20158;-62
2022/05/26 04:34:27;;;;;;;22.85;20.25;;;;;;;;;;2064543;28;20247;-63
2022/05/26 04:35:27;;;;;;;22.23;18.75;;;;;;;;;;2065090;28;20174;-61
2022/05/26 04:36:27;;;;;;;22.77;18.65;;;;;;;;;;2064955;28;20200;-62
2022/05/26 04:37:27;;;;;;;22.27;19.23;;;;;;;;;;2065316;28;20169;-61
2022/05/26 04:38:28;;;;;;;24.35;20.15;;;;;;;;;;2065254;28;20689;-62
2022/05/26 04:39:28;;;;;;;25.25;19.63;;;;;;;;;;2065709;28;20189;-62
2022/05/26 04:40:28;;;;;;;25.25;19.67;;;;;;;;;;2064986;28;20166;-61
2022/05/26 04:41:29;;;;;;;24.42;19.85;;;;;;;;;;2065374;28;20261;-61
2022/05/26 04:42:31;;;;;;;27.27;18.85;;;;;;;;;;2064610;28;20169;-63
2022/05/26 04:43:33;;;;;;;28.63;19.58;;;;;;;;;;2065009;28;20639;-63
2022/05/26 04:44:35;;;;;;;25.05;21.33;;;;;;;;;;2064506;28;20174;-63
2022/05/26 04:45:35;;;;;;;28.08;19.48;;;;;;;;;;2064668;28;20178;-61
2022/05/26 04:46:36;;;;;;;24.95;20.05;;;;;;;;;;2064557;28;20264;-61
2022/05/26 04:47:36;;;;;;;28.08;20.42;;;;;;;;;;2059207;28;20546;-62
2022/05/26 04:48:37;;;;;;;23.75;18.75;;;;;;;;;;2057188;28;20183;-62
2022/05/26 04:49:38;;;;;;;24.42;19.55;;;;;;;;;;2060381;28;20249;-62
2022/05/26 04:50:38;;;;;;;22.23;18.55;;;;;;;;;;2069768;28;20173;-62
2022/05/26 04:51:38;;;;;;;26.17;20.38;;;;;;;;;;2065054;28;20188;-64
2022/05/26 04:52:39;;;;;;;34.20;21.38;;;;;;;;;;2065022;28;20169;-58
2022/05/26 04:53:39;;;;;;;28.67;20.58;;;;;;;;;;2056443;28;20574;-61
2022/05/26 04:54:39;;;;;;;27.00;21.08;;;;;;;;;;2055481;28;20532;-63
2022/05/26 04:55:40;;;;;;;30.17;20.83;;;;;;;;;;2064527;28;20182;-60
2022/05/26 04:56:40;;;;;;;25.13;20.50;;;;;;;;;;2064122;28;20686;-62
2022/05/26 04:57:40;;;;;;;24.20;20.38;;;;;;;;;;2066517;28;20258;-63
2022/05/26 04:58:40;;;;;;;24.33;19.55;;;;;;;;;;2066862;28;20276;-59
2022/05/26 04:59:41;;;;;;;25.27;21.05;;;;;;;;;;2066365;28;20169;-62
2022/05/26 05:00:41;;;;;;;29.33;19.70;;;;;;;;;;2066385;28;20646;-62
2022/05/26 05:01:42;;;;;;;23.40;19.92;;;;;;;;;;2066047;28;20198;-63
2022/05/26 05:02:42;;;;;;;28.02;20.90;;;;;;;;;;2066119;28;20169;-64
2022/05/26 05:03:43;;;;;;;24.92;20.33;;;;;;;;;;2066722;28;20181;-62
2022/05/26 05:04:44;;;;;;;24.80;21.08;;;;;;;;;;2061481;28;20174;-63
2022/05/26 05:05:44;;;;;;;26.23;20.88;;;;;;;;;;2057889;28;20553;-65
2022/05/26 05:06:45;;;;;;;25.25;20.08;;;;;;;;;;2063115;28;20288;-63
2022/05/26 05:07:45;;;;;;;25.77;20.65;;;;;;;;;;2066502;28;20181;-58
2022/05/26 05:08:45;;;;;;;24.90;20.05;;;;;;;;;;2067293;28;20184;-61
2022/05/26 05:09:46;;;;;;;27.05;20.17;;;;;;;;;;2066876;28;20253;-63
2022/05/26 05:10:47;;;;;;;26.48;19.63;;;;;;;;;;2066031;28;20185;-62
2022/05/26 05:11:47;;;;;;;24.75;18.13;;;;;;;;;;2066098;28;20323;-63
2022/05/26 05:12:51;;;;;;;28.48;19.67;;;;;;;;;;2066849;28;20182;-63
2022/05/26 05:13:51;;;;;;;25.67;19.67;;;;;;;;;;2066533;28;20182;-61
2022/05/26 05:14:53;;;;;;;25.30;18.90;;;;;;;;;;2066404;28;20253;-63
2022/05/26 05:15:55;;;;;;;23.02;18.90;;;;;;;;;;2063336;28;20249;-64
2022/05/26 05:16:56;;;;;;;24.15;18.67;;;;;;;;;;2066477;28;20280;-63
2022/05/26 05:17:56;;;;;;;23.67;19.42;;;;;;;;;;2066829;28;20518;-62
2022/05/26 05:18:57;;;;;;;25.17;18.92;;;;;;;;;;2067148;28;20177;-60
2022/05/26 05:19:57;;;;;;;22.00;19.58;;;;;;;;;;2066434;28;20154;-62
2022/05/26 05:20:59;;;;;;;28.10;20.95;;;;;;;;;;2065828;28;20177;-63
2022/05/26 05:22:01;;;;;;;23.83;20.00;;;;;;;;;;2066331;28;20181;-63
2022/05/26 05:23:03;;;;;;;22.75;19.08;;;;;;;;;;2067190;28;20166;-63
2022/05/26 05:24:07;;;;;;;23.88;19.75;;;;;;;;;;2066425;28;20177;-63
2022/05/26 05:25:18;;;;;;;27.10;19.80;;;;;;;;;;2067538;28;20549;-61
2022/05/26 05:26:20;;;;;;;25.27;19.58;;;;;;;;;;2066638;28;20217;-61
2022/05/26 05:27:20;;;;;;;29.90;18.92;;;;;;;;;;2066968;28;20177;-62
2022/05/26 05:28:21;;;;;;;21.75;18.00;;;;;;;;;;2066719;28;20217;-63
2022/05/26 05:29:24;;;;;;;24.02;18.95;;;;;;;;;;2067231;28;20198;-63
2022/05/26 05:30:27;;;;;;;22.83;18.65;;;;;;;;;;2067785;28;20189;-62
2022/05/26 05:31:42;;;;;;;23.95;18.42;;;;;;;;;;2067521;28;20750;-62
2022/05/26 05:32:47;;;;;;;22.50;18.10;;;;;;;;;;2067218;28;20189;-61
2022/05/26 05:34:10;;;;;;;26.60;19.25;;;;;;;;;;2067606;28;20165;-62
2022/05/26 05:35:12;;;;;;;21.65;18.52;;;;;;;;;;2067098;28;20184;-61
2022/05/26 05:36:12;;;;;;;19.58;17.55;;;;;;;;;;2058813;28;20201;-63
2022/05/26 05:37:12;;;;;;;25.90;19.17;;;;;;;;;;2058977;28;20197;-64
2022/05/26 05:38:13;;;;;;;21.88;18.13;;;;;;;;;;2066890;28;20177;-62
2022/05/26 05:39:13;;;;;;;24.35;19.15;;;;;;;;;;2067531;28;20170;-61
2022/05/26 05:40:14;;;;;;;21.98;18.05;;;;;;;;;;2068218;28;20190;-63
2022/05/26 05:41:14;;;;;;;24.25;18.38;;;;;;;;;;2067432;28;20173;-60
2022/05/26 05:42:14;;;;;;;25.25;18.27;;;;;;;;;;2066740;28;20233;-60
2022/05/26 05:43:15;;;;;;;21.23;17.83;;;;;;;;;;2066335;28;20173;-63
2022/05/26 05:44:15;;;;;;;23.77;17.95;;;;;;;;;;2065669;28;20174;-62
2022/05/26 05:45:15;;;;;;;25.50;17.88;;;;;;;;;;2065742;28;20276;-62
2022/05/26 05:46:19;;;;;;;23.08;18.35;;;;;;;;;;2065770;28;20186;-62
2022/05/26 05:47:20;;;;;;;23.58;18.10;;;;;;;;;;2062516;28;20273;-61
2022/05/26 05:48:21;;;;;;;22.63;17.52;;;;;;;;;;2064666;28;20224;-64
2022/05/26 05:49:22;;;;;;;25.80;17.75;;;;;;;;;;2066316;28;20188;-60
2022/05/26 05:50:22;;;;;;;22.70;17.33;;;;;;;;;;2073732;28;20658;-62
2022/05/26 05:51:22;;;;;;;27.35;18.60;;;;;;;;;;2065444;28;20181;-61
2022/05/26 05:52:23;;;;;;;23.25;17.65;;;;;;;;;;2065929;28;20185;-62
2022/05/26 05:53:23;;;;;;;28.45;17.35;;;;;;;;;;2066399;28;20515;-66
2022/05/26 05:54:23;;;;;;;22.77;18.35;;;;;;;;;;2065998;28;20614;-63
2022/05/26 05:55:24;;;;;;;22.20;16.90;;;;;;;;;;2066172;28;20184;-64
2022/05/26 05:56:24;;;;;;;20.58;17.70;;;;;;;;;;2066198;28;20628;-61
2022/05/26 05:57:25;;;;;;;25.98;17.33;;;;;;;;;;2066261;28;20174;-61
2022/05/26 05:58:25;;;;;;;27.95;17.08;;;;;;;;;;2066440;28;20182;-63
2022/05/26 05:59:25;;;;;;;20.63;16.92;;;;;;;;;;2066281;28;20537;-60
2022/05/26 06:00:26;;;;;;;20.67;16.30;;;;;;;;;;2065792;28;20193;-63
2022/05/26 06:01:26;;;;;;;20.80;17.48;;;;;;;;;;2066150;28;20248;-63
2022/05/26 06:02:26;;;;;;;24.08;16.83;;;;;;;;;;2066890;28;20178;-61
2022/05/26 06:03:34;;;;;;;21.95;16.08;;;;;;;;;;2066476;28;20177;-63
2022/05/26 06:04:42;;;;;;;29.92;17.50;;;;;;;;;;2067227;28;20170;-61
2022/05/26 06:05:42;;;;;;;20.17;16.05;;;;;;;;;;2069662;28;20162;-60
2022/05/26 06:06:43;;;;;;;22.75;15.05;;;;;;;;;;2069964;28;20194;-62
2022/05/26 06:07:43;;;;;;;22.52;16.45;;;;;;;;;;2070905;28;20188;-58
2022/05/26 06:08:44;;;;;;;20.48;15.35;;;;;;;;;;2068309;28;20174;-61
2022/05/26 06:09:45;;;;;;;19.85;16.20;;;;;;;;;;2068834;28;20186;-63
2022/05/26 06:10:45;;;;;;;21.23;15.43;;;;;;;;;;2068426;28;20189;-62
2022/05/26 06:11:45;;;;;;;21.55;15.38;;;;;;;;;;2068101;28;20174;-59
2022/05/26 06:12:48;;;;;;;22.17;16.15;;;;;;;;;;2068481;28;20256;-61
2022/05/26 06:13:48;;;;;;;18.92;15.10;;;;;;;;;;2068750;28;20208;-60
2022/05/26 06:14:49;;;;;;;17.45;14.93;;;;;;;;;;2067818;28;20188;-62
2022/05/26 06:15:49;;;;;;;20.83;15.60;;;;;;;;;;2068344;28;20181;-59
2022/05/26 06:16:49;;;;;;;22.77;15.35;;;;;;;;;;2068983;28;20221;-62
2022/05/26 06:17:49;;;;;;;19.40;14.93;;;;;;;;;;2069791;28;20260;-60
2022/05/26 06:18:50;;;;;;;18.33;15.23;;;;;;;;;;2070884;28;20224;-60
2022/05/26 06:19:51;;;;;;;20.13;15.60;;;;;;;;;;2070881;28;20182;-62
2022/05/26 06:20:59;;;;;;;15.88;13.93;;;;;;;;;;2071981;28;20165;-61
2022/05/26 06:22:04;;;;;;;20.58;14.10;;;;;;;;;;2071656;28;20169;-60